Time;durP1;ratioP1;P1;durP2;ratioP2;P2;SDS_P1;SDS_P2;PMS_P1;PMS_P2;Temp;Humidity;BMP_temperature;BMP_pressure;BME280_temperature;BME280_humidity;BME280_pressure;Samples;Min_cycle;Max_cycle;Signal;HPM_P1;HPM_P2
2022/02/03 00:01:01;;;;;;;9.10;8.00;;;;;;;6.09;100.00;152926.53;5078133;28;20462;-80
2022/02/03 00:03:48;;;;;;;10.20;7.83;;;;;;;6.09;100.00;152925.22;5093669;28;20436;-80
2022/02/03 00:06:32;;;;;;;8.00;7.27;;;;;;;6.09;100.00;152925.22;5073275;28;20446;-80
2022/02/03 00:09:30;;;;;;;9.50;7.90;;;;;;;6.08;100.00;152923.97;5080827;28;20449;-80
2022/02/03 00:24:11;;;;;;;9.20;8.27;;;;;;;6.11;100.00;152931.72;5010293;28;20828;-80
2022/02/03 00:27:04;;;;;;;10.10;9.10;;;;;;;6.14;100.00;152938.19;5066338;28;20791;-80
2022/02/03 00:29:55;;;;;;;11.77;9.40;;;;;;;6.14;100.00;152938.19;5068701;28;20829;-80
2022/02/03 00:36:04;;;;;;;11.17;9.30;;;;;;;6.16;100.00;152942.03;5138775;27;20527;-80
2022/02/03 00:50:23;;;;;;;9.33;8.10;;;;;;;6.16;100.00;152942.03;5105023;28;20779;-80
2022/02/03 00:53:02;;;;;;;10.33;9.03;;;;;;;6.16;100.00;152943.31;5102188;28;20448;-80
2022/02/03 00:55:38;;;;;;;10.33;8.50;;;;;;;6.18;100.00;152947.19;5101420;28;20545;-80
2022/02/03 00:58:15;;;;;;;9.43;7.80;;;;;;;6.19;100.00;152949.78;5122787;27;20455;-80
2022/02/03 01:00:53;;;;;;;9.80;8.80;;;;;;;6.19;100.00;152951.06;5105083;28;20456;-80
2022/02/03 01:03:30;;;;;;;12.20;8.40;;;;;;;6.20;100.00;152953.63;5113688;28;20472;-81
2022/02/03 01:06:06;;;;;;;10.20;8.70;;;;;;;6.21;100.00;152954.94;5123154;27;20845;-80
2022/02/03 01:08:45;;;;;;;11.57;8.60;;;;;;;6.22;100.00;152958.81;5099038;27;20463;-80
2022/02/03 01:11:25;;;;;;;13.27;8.80;;;;;;;6.22;100.00;152958.81;5120472;27;20482;-80
2022/02/03 01:14:06;;;;;;;9.70;8.10;;;;;;;6.22;100.00;152957.53;5114106;27;20494;-80
2022/02/03 01:16:59;;;;;;;9.03;8.07;;;;;;;6.22;100.00;152957.53;5123918;27;21080;-80
2022/02/03 01:20:07;;;;;;;7.63;6.70;;;;;;;6.23;100.00;152960.06;5104881;28;20453;-80
2022/02/03 01:43:23;;;;;;;8.80;7.40;;;;;;;6.26;100.00;152967.81;5081539;28;20526;-80
2022/02/03 01:46:10;;;;;;;9.13;6.07;;;;;;;6.28;100.00;152972.97;5099666;28;20440;-80
2022/02/03 01:49:05;;;;;;;7.93;6.30;;;;;;;6.28;100.00;152972.97;5110370;28;20456;-80
2022/02/03 01:51:54;;;;;;;8.47;7.60;;;;;;;6.28;100.00;152972.97;5102236;27;20453;-80
2022/02/03 01:54:31;;;;;;;8.23;6.77;;;;;;;6.31;100.00;152980.72;5107203;28;21269;-80
2022/02/03 01:57:09;;;;;;;8.30;6.37;;;;;;;6.31;100.00;152982.03;5086523;28;20461;-80
2022/02/03 01:59:46;;;;;;;8.97;6.60;;;;;;;6.32;100.00;152983.31;5090665;28;20451;-80
2022/02/03 02:02:27;;;;;;;7.17;6.47;;;;;;;6.32;100.00;152983.31;5111775;27;20731;-80
2022/02/03 02:05:07;;;;;;;8.90;7.30;;;;;;;6.33;100.00;152985.91;5096279;28;20444;-80
2022/02/03 02:07:58;;;;;;;8.57;6.97;;;;;;;6.33;100.00;152985.91;5091465;28;20540;-80
2022/02/03 02:11:05;;;;;;;7.23;6.40;;;;;;;6.32;100.00;152984.63;5102819;28;20594;-80
2022/02/03 02:14:05;;;;;;;8.13;6.87;;;;;;;6.29;100.00;152975.56;5094431;28;20460;-81
2022/02/03 02:37:24;;;;;;;9.37;7.67;;;;;;;6.26;100.00;152967.81;5101001;28;20536;-80
2022/02/03 02:43:10;;;;;;;6.73;6.03;;;;;;;6.21;100.00;152954.94;5120233;27;20433;-80
2022/02/03 02:45:51;;;;;;;9.50;7.20;;;;;;;6.23;100.00;152960.06;5106191;28;20440;-80
2022/02/03 02:48:38;;;;;;;8.70;7.20;;;;;;;6.24;100.00;152962.66;5092067;28;20981;-80
2022/02/03 02:51:21;;;;;;;7.30;6.60;;;;;;;6.22;100.00;152957.53;5109640;28;20444;-80
2022/02/03 02:54:20;;;;;;;7.67;6.70;;;;;;;6.24;100.00;152963.97;5106830;28;20448;-80
2022/02/03 02:57:16;;;;;;;8.60;6.50;;;;;;;6.26;100.00;152967.81;5104129;28;20941;-80
2022/02/03 03:35:06;;;;;;;8.97;6.73;;;;;;;6.30;100.00;152978.16;5082941;28;20502;-80
2022/02/03 03:37:46;;;;;;;6.70;5.70;;;;;;;6.29;100.00;152975.56;5083719;28;20814;-80
2022/02/03 03:40:22;;;;;;;6.93;6.03;;;;;;;6.29;100.00;152975.56;5083579;28;20441;-80
2022/02/03 03:43:03;;;;;;;7.60;5.90;;;;;;;6.30;100.00;152978.16;5086297;28;20437;-80
2022/02/03 03:45:46;;;;;;;8.33;6.40;;;;;;;6.29;100.00;152975.56;5085290;28;20445;-80
2022/02/03 03:48:30;;;;;;;6.90;5.97;;;;;;;6.29;100.00;152975.56;5099236;27;20457;-80
2022/02/03 03:51:10;;;;;;;7.87;7.07;;;;;;;6.28;100.00;152972.97;5081920;28;20861;-80
2022/02/03 03:53:58;;;;;;;7.90;6.47;;;;;;;6.26;100.00;152967.81;5064931;28;20458;-81
2022/02/03 03:56:41;;;;;;;6.03;5.33;;;;;;;6.23;100.00;152960.06;5067954;28;20473;-80
2022/02/03 03:59:58;;;;;;;7.77;5.80;;;;;;;6.22;100.00;152957.53;5082401;28;20880;-80
2022/02/03 04:33:04;;;;;;;6.90;5.43;;;;;;;6.17;100.00;152945.88;5063103;28;20433;-81
2022/02/03 04:38:54;;;;;;;6.80;5.90;;;;;;;6.19;100.00;152949.78;5080976;28;20776;-80
2022/02/03 04:51:17;;;;;;;6.87;6.17;;;;;;;6.21;100.00;152954.94;5105329;28;20746;-80
2022/02/03 04:54:40;;;;;;;6.60;5.30;;;;;;;6.20;100.00;152952.31;5104487;28;20444;-81
2022/02/03 05:00:41;;;;;;;8.53;6.00;;;;;;;6.16;100.00;152943.31;5105281;28;20919;-80
2022/02/03 05:04:00;;;;;;;7.50;5.70;;;;;;;6.16;100.00;152943.31;5104144;28;20452;-80
2022/02/03 05:07:02;;;;;;;6.77;5.67;;;;;;;6.18;100.00;152947.19;5104403;28;20952;-80
2022/02/03 05:10:02;;;;;;;6.30;5.60;;;;;;;6.14;100.00;152939.44;5114795;28;20452;-81
2022/02/03 05:13:36;;;;;;;6.50;5.50;;;;;;;6.13;100.00;152936.88;5081868;28;20445;-81
2022/02/03 05:16:56;;;;;;;6.70;5.37;;;;;;;6.11;100.00;152930.44;5062924;28;20469;-80
2022/02/03 05:20:12;;;;;;;7.03;6.07;;;;;;;6.09;100.00;152925.22;5107296;28;20455;-81
2022/02/03 05:26:18;;;;;;;7.37;5.63;;;;;;;6.07;100.00;152921.38;5096500;28;20439;-80
2022/02/03 05:32:37;;;;;;;7.23;5.33;;;;;;;6.05;100.00;152916.25;5109069;28;20436;-80
2022/02/03 05:35:29;;;;;;;7.13;5.80;;;;;;;6.04;100.00;152913.63;5105547;28;20480;-81
2022/02/03 05:44:29;;;;;;;7.20;5.70;;;;;;;5.97;100.00;152894.28;5108556;28;20444;-81
2022/02/03 05:47:18;;;;;;;7.83;6.80;;;;;;;5.92;100.00;152882.69;5084761;28;20523;-81
2022/02/03 05:50:22;;;;;;;8.27;7.00;;;;;;;5.93;100.00;152884.00;5101311;28;20777;-81
2022/02/03 06:02:01;;;;;;;8.23;5.93;;;;;;;5.85;100.00;152864.63;5105012;28;20464;-80
2022/02/03 06:05:01;;;;;;;7.97;6.30;;;;;;;5.86;100.00;152865.91;5112216;27;20467;-81
2022/02/03 06:13:39;;;;;;;7.27;6.13;;;;;;;5.84;100.00;152862.00;5090979;28;20428;-80
2022/02/03 06:16:37;;;;;;;7.57;6.17;;;;;;;5.85;100.00;152864.63;5106658;28;20460;-81
2022/02/03 06:22:23;;;;;;;8.57;6.20;;;;;;;5.83;100.00;152859.41;5104051;28;20870;-80
2022/02/03 06:27:51;;;;;;;7.03;5.87;;;;;;;5.83;100.00;152859.41;5106398;28;20445;-81
2022/02/03 06:30:27;;;;;;;7.23;5.87;;;;;;;5.84;100.00;152860.72;5092519;28;20455;-80
2022/02/03 06:33:14;;;;;;;8.10;5.97;;;;;;;5.85;100.00;152864.63;5108351;28;20460;-80
2022/02/03 06:35:50;;;;;;;7.30;6.53;;;;;;;5.87;100.00;152868.50;5107420;28;20479;-80
2022/02/03 06:38:27;;;;;;;8.03;6.30;;;;;;;5.91;100.00;152880.09;5105210;28;20440;-80
2022/02/03 06:41:03;;;;;;;9.50;7.60;;;;;;;5.92;100.00;152882.69;5100658;28;20441;-80
2022/02/03 06:43:39;;;;;;;9.03;7.47;;;;;;;5.95;100.00;152889.16;5105115;28;20457;-81
2022/02/03 06:46:15;;;;;;;10.40;8.20;;;;;;;5.93;100.00;152885.25;5091575;28;20439;-80
2022/02/03 06:48:56;;;;;;;9.87;7.77;;;;;;;5.97;100.00;152894.28;5099708;28;20536;-80
2022/02/03 06:51:35;;;;;;;9.00;7.60;;;;;;;5.97;100.00;152895.59;5081803;28;20736;-80
2022/02/03 06:54:19;;;;;;;8.80;7.47;;;;;;;5.99;100.00;152900.75;5107539;28;20482;-80
2022/02/03 06:56:58;;;;;;;8.00;6.53;;;;;;;6.00;100.00;152903.34;5085637;28;20534;-80
2022/02/03 06:59:42;;;;;;;7.20;6.50;;;;;;;5.99;100.00;152899.44;5104976;28;20544;-80
2022/02/03 07:02:19;;;;;;;7.40;6.10;;;;;;;6.00;100.00;152902.03;5107750;28;20439;-80
2022/02/03 07:04:57;;;;;;;7.80;6.27;;;;;;;6.00;100.00;152902.03;5107917;28;20440;-79
2022/02/03 07:07:32;;;;;;;7.90;6.30;;;;;;;6.02;100.00;152908.50;5103327;28;21009;-79
2022/02/03 07:10:11;;;;;;;8.03;6.70;;;;;;;6.06;100.00;152917.53;5087325;28;20814;-80
2022/02/03 07:12:46;;;;;;;7.40;6.07;;;;;;;6.08;100.00;152923.97;5103580;28;20473;-79
2022/02/03 07:15:22;;;;;;;7.27;5.70;;;;;;;6.10;100.00;152929.13;5107109;28;20462;-80
2022/02/03 07:17:59;;;;;;;7.70;6.80;;;;;;;6.11;100.00;152930.44;5085530;28;20462;-81
2022/02/03 07:20:35;;;;;;;8.80;7.00;;;;;;;6.14;100.00;152938.19;5107661;28;20535;-81
2022/02/03 07:23:11;;;;;;;8.03;6.33;;;;;;;6.16;100.00;152943.31;5105118;28;20440;-80
2022/02/03 07:25:47;;;;;;;7.33;6.57;;;;;;;6.18;100.00;152947.19;5108508;28;20503;-80
2022/02/03 07:28:23;;;;;;;7.70;6.10;;;;;;;6.20;100.00;152953.63;5106827;28;20447;-80
2022/02/03 07:30:59;;;;;;;7.67;5.93;;;;;;;6.23;100.00;152961.38;5112105;27;20439;-80
2022/02/03 07:33:35;;;;;;;7.87;6.90;;;;;;;6.21;100.00;152956.22;5083383;28;20472;-80
2022/02/03 07:36:11;;;;;;;9.53;6.40;;;;;;;6.26;100.00;152967.81;5088427;28;20485;-81
2022/02/03 07:38:47;;;;;;;6.20;5.17;;;;;;;6.28;100.00;152974.28;5088248;28;20452;-80
2022/02/03 07:41:23;;;;;;;7.10;6.10;;;;;;;6.31;100.00;152982.03;5107845;28;20432;-80
2022/02/03 07:43:59;;;;;;;7.43;5.77;;;;;;;6.34;100.00;152988.47;5086766;28;20808;-80
2022/02/03 07:46:35;;;;;;;6.73;5.70;;;;;;;6.35;100.00;152992.38;5090118;28;20444;-80
2022/02/03 07:49:11;;;;;;;8.30;6.20;;;;;;;6.38;100.00;152998.81;5082380;28;20447;-80
2022/02/03 07:51:46;;;;;;;6.30;5.60;;;;;;;6.40;100.00;153003.97;5106709;28;20436;-80
2022/02/03 07:54:22;;;;;;;6.63;5.70;;;;;;;6.40;100.00;153005.28;5088765;28;20448;-80
2022/02/03 07:56:59;;;;;;;6.90;5.87;;;;;;;6.43;100.00;153011.72;5115822;27;20468;-80
2022/02/03 07:59:35;;;;;;;6.20;5.50;;;;;;;6.45;100.00;153016.88;5104516;28;20476;-80
2022/02/03 08:02:10;;;;;;;8.60;6.47;;;;;;;6.47;100.00;153023.31;5089302;28;21218;-80
2022/02/03 08:04:47;;;;;;;8.23;5.63;;;;;;;6.49;100.00;153027.16;5090348;28;20463;-80
2022/02/03 08:07:24;;;;;;;8.43;5.80;;;;;;;6.51;100.00;153032.38;5105954;28;21077;-80
2022/02/03 08:10:05;;;;;;;7.40;6.50;;;;;;;6.53;100.00;153037.50;5106786;28;20795;-80
2022/02/03 08:12:41;;;;;;;6.47;5.13;;;;;;;6.57;100.00;153047.81;5100751;28;20440;-80
2022/02/03 08:15:17;;;;;;;7.57;6.00;;;;;;;6.60;100.00;153055.56;5079909;28;20504;-80
2022/02/03 08:17:58;;;;;;;7.17;5.53;;;;;;;6.60;100.00;153055.56;5107760;28;20439;-80
2022/02/03 08:20:34;;;;;;;6.70;4.70;;;;;;;6.61;100.00;153058.16;5114842;27;20444;-80
2022/02/03 08:23:26;;;;;;;6.60;5.13;;;;;;;6.63;100.00;153063.31;5087658;28;20487;-80
2022/02/03 08:26:10;;;;;;;5.60;5.00;;;;;;;6.66;100.00;153072.38;5113924;27;20442;-80
2022/02/03 08:29:10;;;;;;;6.37;5.50;;;;;;;6.72;100.00;153086.56;5091592;28;20487;-80
2022/02/03 08:31:53;;;;;;;7.30;5.87;;;;;;;6.73;100.00;153089.13;5105728;28;20448;-80
2022/02/03 08:34:36;;;;;;;8.97;7.13;;;;;;;6.74;100.00;153093.03;5080193;28;20472;-80
2022/02/03 08:37:12;;;;;;;9.07;6.80;;;;;;;6.77;100.00;153099.47;5067634;28;20489;-80
2022/02/03 08:39:54;;;;;;;8.53;6.70;;;;;;;6.83;100.00;153114.94;5083475;28;20555;-79
2022/02/03 08:42:29;;;;;;;7.77;6.97;;;;;;;6.88;100.00;153127.88;5075705;28;20543;-80
2022/02/03 08:45:07;;;;;;;8.80;6.03;;;;;;;6.95;100.00;153145.94;5061856;28;20433;-79
2022/02/03 08:47:42;;;;;;;7.33;5.90;;;;;;;6.99;100.00;153156.25;5086204;28;20437;-79
2022/02/03 08:50:18;;;;;;;6.90;6.20;;;;;;;7.02;100.00;153164.00;5064414;28;20457;-79
2022/02/03 08:53:01;;;;;;;7.47;6.63;;;;;;;7.02;100.00;153164.00;5067874;28;20850;-79
2022/02/03 08:55:45;;;;;;;7.50;6.10;;;;;;;7.05;100.00;153171.75;5067897;28;20461;-80
2022/02/03 08:58:46;;;;;;;7.63;5.03;;;;;;;7.05;100.00;153170.44;5090396;28;20437;-79
2022/02/03 09:39:08;;;;;;;4.33;3.50;;;;;;;7.51;100.00;153289.28;5057000;28;20465;-79
2022/02/03 09:53:50;;;;;;;3.63;2.30;;;;;;;7.71;100.00;153340.91;5061622;28;20863;-79
2022/02/03 09:59:15;;;;;;;3.73;3.20;;;;;;;7.77;100.00;153355.13;5065954;28;20442;-80
2022/02/03 10:02:07;;;;;;;4.20;2.37;;;;;;;7.75;100.00;153351.28;5084213;28;20482;-80
2022/02/03 10:04:47;;;;;;;3.00;2.70;;;;;;;7.85;100.00;153377.09;5073170;28;20944;-80
2022/02/03 10:07:25;;;;;;;2.93;2.63;;;;;;;7.88;100.00;153383.56;5066386;28;20949;-80
2022/02/03 10:10:07;;;;;;;3.10;2.57;;;;;;;7.85;100.00;153375.81;5053541;28;20801;-80
2022/02/03 10:12:45;;;;;;;2.83;2.63;;;;;;;7.89;100.00;153386.13;5079653;28;20933;-80
2022/02/03 10:15:22;;;;;;;2.70;2.47;;;;;;;7.91;100.00;153391.31;5068584;28;20448;-80
2022/02/03 10:17:58;;;;;;;3.40;2.77;;;;;;;7.99;100.00;153412.00;5068800;28;20437;-80
2022/02/03 10:20:34;;;;;;;3.63;2.40;;;;;;;8.05;100.00;153427.47;5074164;28;20455;-80
2022/02/03 10:23:15;;;;;;;3.23;2.80;;;;;;;8.05;100.00;153427.47;5076471;28;20529;-80
2022/02/03 10:25:56;;;;;;;6.83;3.50;;;;;;;8.04;100.00;153424.91;5052561;28;20449;-80
2022/02/03 10:28:34;;;;;;;3.03;2.73;;;;;;;8.14;100.00;153450.75;5052905;28;20461;-80
2022/02/03 10:31:10;;;;;;;2.40;2.10;;;;;;;8.25;100.00;153477.88;5067951;28;20446;-80
2022/02/03 10:33:47;;;;;;;2.60;2.40;;;;;;;8.21;100.00;153468.81;5053450;28;20472;-80
2022/02/03 10:36:42;;;;;;;3.13;2.70;;;;;;;8.25;100.00;153479.19;5072124;28;20473;-81
2022/02/03 10:40:10;;;;;;;2.80;2.20;;;;;;;8.26;100.00;153481.75;5071333;28;20469;-80
2022/02/03 10:43:07;;;;;;;2.83;2.53;;;;;;;8.23;100.00;153472.72;5083535;28;20473;-80
2022/02/03 10:46:14;;;;;;;3.07;2.77;;;;;;;8.30;100.00;153490.84;5068723;28;20813;-80
2022/02/03 10:52:14;;;;;;;2.40;2.00;;;;;;;8.40;100.00;153518.00;5081164;28;20441;-80
2022/02/03 10:55:07;;;;;;;2.73;2.47;;;;;;;8.50;100.00;153543.84;5085448;28;20524;-80
2022/02/03 11:00:59;;;;;;;3.10;2.43;;;;;;;8.53;100.00;153551.59;5063285;28;20449;-80
2022/02/03 11:03:54;;;;;;;2.23;2.03;;;;;;;8.43;100.00;153525.75;5096876;28;20544;-81
2022/02/03 11:06:36;;;;;;;2.27;2.00;;;;;;;8.55;100.00;153555.50;5087519;28;20445;-79
2022/02/03 11:09:17;;;;;;;2.60;2.30;;;;;;;8.65;100.00;153580.03;5085702;28;20979;-80
2022/02/03 11:11:56;;;;;;;2.37;2.13;;;;;;;8.61;100.00;153569.69;5069097;28;20438;-80
2022/02/03 11:14:34;;;;;;;3.30;2.73;;;;;;;8.64;100.00;153577.44;5067822;28;20488;-80
2022/02/03 11:17:10;;;;;;;2.77;2.53;;;;;;;8.64;100.00;153578.75;5082687;28;20457;-80
2022/02/03 11:19:50;;;;;;;3.87;2.80;;;;;;;8.52;99.72;153549.00;5086144;28;20953;-80
2022/02/03 11:22:31;;;;;;;3.47;2.90;;;;;;;8.68;100.00;153587.81;5070522;28;20453;-80
2022/02/03 11:25:17;;;;;;;2.80;2.40;;;;;;;8.80;99.79;153620.13;5066557;28;20469;-80
2022/02/03 11:28:15;;;;;;;3.10;2.80;;;;;;;8.68;99.15;153587.81;5071842;28;20433;-79
2022/02/03 11:31:18;;;;;;;4.30;3.23;;;;;;;8.65;100.00;153581.34;5097314;28;20441;-80
2022/02/03 11:37:34;;;;;;;2.97;2.67;;;;;;;8.75;97.90;153605.91;5041704;28;20462;-79
2022/02/03 11:40:29;;;;;;;3.50;2.63;;;;;;;8.84;98.84;153629.19;5122580;27;20441;-79
2022/02/03 11:57:57;;;;;;;2.50;2.30;;;;;;;8.89;96.90;153643.41;5105390;28;20551;-79
2022/02/03 12:01:07;;;;;;;2.70;2.50;;;;;;;8.87;97.25;153636.94;5117848;27;20484;-79
2022/02/03 12:15:50;;;;;;;3.60;3.10;;;;;;;8.96;97.92;153660.19;5078232;28;20444;-80
2022/02/03 12:18:58;;;;;;;3.30;3.00;;;;;;;8.97;99.18;153662.81;5079011;28;20454;-80
2022/02/03 12:21:41;;;;;;;3.23;2.70;;;;;;;9.13;96.31;153704.19;5097185;28;20436;-80
2022/02/03 12:24:29;;;;;;;4.07;3.67;;;;;;;9.11;96.75;153698.97;5107706;28;20448;-80
2022/02/03 12:27:23;;;;;;;3.10;2.80;;;;;;;9.11;99.68;153698.97;5084029;28;20941;-80
2022/02/03 12:30:04;;;;;;;3.20;2.87;;;;;;;9.08;97.45;153691.25;5088282;28;20467;-80
2022/02/03 12:33:14;;;;;;;3.53;3.13;;;;;;;9.20;97.49;153722.28;5108108;28;20443;-80
2022/02/03 12:38:50;;;;;;;2.63;2.43;;;;;;;9.30;93.42;153748.13;5074561;28;20580;-80
2022/02/03 12:41:35;;;;;;;5.53;2.63;;;;;;;9.19;96.09;153719.69;5085557;28;21070;-80
2022/02/03 12:44:22;;;;;;;3.57;2.60;;;;;;;9.16;97.82;153713.22;5083489;28;20451;-81
2022/02/03 12:47:02;;;;;;;2.83;2.57;;;;;;;9.18;94.94;153717.13;5105408;28;20480;-80
2022/02/03 12:49:38;;;;;;;5.70;2.57;;;;;;;9.19;94.83;153719.69;5085614;28;20460;-80
2022/02/03 12:52:22;;;;;;;3.27;2.40;;;;;;;9.29;95.55;153744.28;5089348;28;20452;-80
2022/02/03 12:54:58;;;;;;;5.63;2.20;;;;;;;9.27;95.56;153740.38;5088853;28;21176;-80
2022/02/03 12:57:35;;;;;;;3.07;2.27;;;;;;;9.25;94.28;153733.91;5090937;28;20464;-81
2022/02/03 13:00:16;;;;;;;4.27;2.70;;;;;;;9.33;94.39;153755.91;5106127;28;20444;-80
2022/02/03 13:02:54;;;;;;;2.57;2.37;;;;;;;9.34;93.55;153758.50;5112248;28;20921;-80
2022/02/03 13:05:33;;;;;;;3.20;2.63;;;;;;;9.39;93.19;153770.13;5106697;28;20440;-80
2022/02/03 13:08:10;;;;;;;2.70;2.50;;;;;;;9.38;91.83;153767.53;5101311;28;20437;-80
2022/02/03 13:10:53;;;;;;;3.00;2.60;;;;;;;9.35;93.01;153761.06;5094280;28;21491;-80
2022/02/03 13:13:37;;;;;;;2.50;2.13;;;;;;;9.37;92.08;153764.97;5105819;28;20444;-80
2022/02/03 13:16:13;;;;;;;2.90;2.60;;;;;;;9.26;93.67;153737.81;5104693;28;20433;-80
2022/02/03 13:19:01;;;;;;;3.70;2.30;;;;;;;9.25;94.58;153733.91;5106556;28;20471;-80
2022/02/03 13:25:00;;;;;;;4.10;2.23;;;;;;;9.27;96.98;153739.06;5101700;28;20448;-79
2022/02/03 13:27:47;;;;;;;2.47;2.23;;;;;;;9.26;96.30;153737.81;5113569;28;20675;-80
2022/02/03 13:30:43;;;;;;;2.63;2.17;;;;;;;9.30;95.52;153746.84;5104854;28;21059;-80
2022/02/03 13:33:33;;;;;;;2.50;2.03;;;;;;;9.32;94.00;153753.31;5101749;28;20446;-80
2022/02/03 13:36:24;;;;;;;2.53;2.20;;;;;;;9.25;93.28;153733.91;5104968;28;20455;-80
2022/02/03 13:39:13;;;;;;;2.23;1.93;;;;;;;9.37;92.98;153764.97;5102823;28;20487;-80
2022/02/03 13:42:03;;;;;;;2.67;2.37;;;;;;;9.33;94.40;153754.59;5104443;28;20501;-81
2022/02/03 13:45:02;;;;;;;3.50;2.50;;;;;;;9.27;94.11;153740.38;5103704;28;20530;-80
2022/02/03 13:47:38;;;;;;;2.40;2.03;;;;;;;9.29;95.84;153744.28;5091156;28;20967;-80
2022/02/03 13:50:22;;;;;;;2.67;2.10;;;;;;;9.30;95.29;153748.13;5091159;28;20468;-80
2022/02/03 13:53:04;;;;;;;3.37;2.10;;;;;;;9.31;94.82;153749.44;5105378;28;20443;-80
2022/02/03 14:11:13;;;;;;;6.40;2.17;;;;;;;9.36;93.42;153762.38;5108720;28;20888;-80
2022/02/03 14:14:08;;;;;;;2.60;1.70;;;;;;;9.34;94.18;153758.50;5106913;28;20481;-79
2022/02/03 14:22:57;;;;;;;2.10;1.70;;;;;;;9.40;93.66;153774.00;5096747;28;20480;-80
2022/02/03 14:28:32;;;;;;;2.17;1.97;;;;;;;9.44;96.09;153783.06;5081930;28;20460;-81
2022/02/03 14:31:09;;;;;;;3.67;2.20;;;;;;;9.35;94.51;153761.06;5097675;27;20444;-81
2022/02/03 14:33:46;;;;;;;2.20;1.60;;;;;;;9.40;93.79;153774.00;5109618;28;20479;-81
2022/02/03 14:36:25;;;;;;;6.07;1.53;;;;;;;9.46;93.40;153788.22;5080797;28;20448;-81
2022/02/03 14:39:10;;;;;;;2.13;1.70;;;;;;;9.40;95.44;153774.00;5101565;28;20440;-81
2022/02/03 14:41:48;;;;;;;2.13;1.50;;;;;;;9.34;95.34;153757.22;5094752;28;20471;-81
2022/02/03 14:44:23;;;;;;;2.30;2.10;;;;;;;9.31;94.53;153750.75;5106900;28;20599;-81
2022/02/03 14:46:59;;;;;;;3.83;2.00;;;;;;;9.31;95.44;153750.75;5107508;28;20943;-81
2022/02/03 14:49:39;;;;;;;2.10;1.90;;;;;;;9.33;95.76;153754.59;5105707;28;20524;-81
2022/02/03 14:52:25;;;;;;;2.37;1.90;;;;;;;9.31;96.85;153749.44;5089558;28;20450;-81
2022/02/03 14:58:05;;;;;;;2.87;1.43;;;;;;;9.30;97.15;153746.84;5107173;27;20469;-81
2022/02/03 15:00:44;;;;;;;3.03;1.77;;;;;;;9.25;96.83;153735.22;5088838;28;21008;-81
2022/02/03 15:03:22;;;;;;;2.23;1.60;;;;;;;9.24;97.47;153732.59;5106685;28;20479;-81
2022/02/03 15:06:07;;;;;;;1.90;1.70;;;;;;;9.22;96.70;153727.44;5081659;27;20547;-81
2022/02/03 15:08:56;;;;;;;3.53;1.63;;;;;;;9.20;97.08;153722.28;5106531;28;20441;-81
2022/02/03 15:11:54;;;;;;;2.17;1.50;;;;;;;9.18;96.63;153718.41;5109199;28;20440;-81
2022/02/03 15:14:30;;;;;;;2.13;1.43;;;;;;;9.16;96.22;153713.22;5106532;28;20452;-81
2022/02/03 15:17:06;;;;;;;2.53;1.93;;;;;;;9.15;97.16;153709.34;5107444;28;20470;-81
2022/02/03 15:19:42;;;;;;;3.90;2.00;;;;;;;9.13;98.26;153704.19;5105730;28;20454;-81
2022/02/03 15:22:19;;;;;;;1.77;1.33;;;;;;;9.09;100.00;153693.81;5091822;28;20448;-81
2022/02/03 15:24:54;;;;;;;3.40;2.00;;;;;;;9.09;100.00;153693.81;5093339;28;20454;-81
2022/02/03 15:27:30;;;;;;;1.90;1.70;;;;;;;9.02;99.30;153677.03;5105712;28;20439;-81
2022/02/03 15:30:07;;;;;;;5.17;3.10;;;;;;;9.01;99.37;153673.13;5105096;28;20799;-81
2022/02/03 15:32:45;;;;;;;3.13;2.00;;;;;;;9.01;100.00;153673.13;5090783;28;20433;-81
2022/02/03 15:35:30;;;;;;;2.43;1.83;;;;;;;9.02;100.00;153675.72;5084313;28;21160;-81
2022/02/03 15:38:11;;;;;;;2.03;1.80;;;;;;;8.98;100.00;153665.34;5107109;28;20548;-81
2022/02/03 15:40:48;;;;;;;2.60;1.90;;;;;;;8.95;100.00;153658.91;5091182;28;20475;-81
2022/02/03 15:43:27;;;;;;;2.93;2.20;;;;;;;8.91;100.00;153647.28;5087759;28;20523;-81
2022/02/03 15:46:06;;;;;;;2.47;1.73;;;;;;;8.90;100.00;153645.97;5107737;27;20451;-81
2022/02/03 15:48:48;;;;;;;2.70;2.07;;;;;;;8.89;100.00;153643.41;5087942;28;20445;-80
2022/02/03 15:57:49;;;;;;;3.73;2.10;;;;;;;8.78;100.00;153613.66;5088402;28;20551;-80
2022/02/03 16:00:57;;;;;;;2.83;2.10;;;;;;;8.73;100.00;153600.72;5091288;28;22103;-80
2022/02/03 16:03:39;;;;;;;3.20;2.90;;;;;;;8.71;100.00;153595.56;5087540;28;20570;-80
2022/02/03 16:17:56;;;;;;;3.90;2.60;;;;;;;8.53;100.00;153551.59;5093901;28;20468;-79
2022/02/03 16:20:37;;;;;;;4.03;3.17;;;;;;;8.47;100.00;153536.06;5083486;28;20485;-79
2022/02/03 16:23:33;;;;;;;3.27;2.97;;;;;;;8.46;100.00;153532.22;5084791;28;20505;-79
2022/02/03 16:26:39;;;;;;;3.27;2.90;;;;;;;8.40;100.00;153516.69;5112770;27;20532;-79
2022/02/03 16:41:07;;;;;;;3.20;2.40;;;;;;;8.27;100.00;153484.41;5106599;28;20809;-80
2022/02/03 16:52:35;;;;;;;4.67;3.20;;;;;;;8.20;100.00;153464.97;5105717;28;20495;-80
2022/02/03 16:55:14;;;;;;;5.10;3.10;;;;;;;8.17;100.00;153457.19;5101846;28;20532;-81
2022/02/03 16:57:51;;;;;;;4.73;3.20;;;;;;;8.11;100.00;153443.00;5089827;28;20822;-80
2022/02/03 17:00:26;;;;;;;4.23;2.80;;;;;;;8.08;100.00;153433.94;5106370;28;20455;-80
2022/02/03 17:03:04;;;;;;;3.43;3.13;;;;;;;8.04;100.00;153423.63;5100315;28;20440;-80
2022/02/03 17:05:39;;;;;;;4.07;3.30;;;;;;;8.02;100.00;153419.75;5085791;28;20437;-81
2022/02/03 17:08:15;;;;;;;4.03;3.63;;;;;;;7.99;100.00;153412.00;5100814;28;20489;-81
2022/02/03 17:10:50;;;;;;;4.27;3.87;;;;;;;7.98;100.00;153410.69;5088079;28;20455;-80
2022/02/03 17:13:26;;;;;;;4.40;4.00;;;;;;;7.95;100.00;153402.94;5105355;28;20447;-80
2022/02/03 17:16:02;;;;;;;5.23;4.20;;;;;;;7.94;100.00;153399.09;5099846;28;20854;-80
2022/02/03 17:18:38;;;;;;;5.00;3.70;;;;;;;7.89;100.00;153387.41;5108293;28;21050;-80
2022/02/03 17:21:14;;;;;;;4.67;4.17;;;;;;;7.90;100.00;153388.72;5088578;28;20468;-80
2022/02/03 17:23:50;;;;;;;5.50;4.70;;;;;;;7.87;100.00;153382.25;5109039;28;20439;-80
2022/02/03 17:26:32;;;;;;;6.43;5.30;;;;;;;7.82;100.00;153368.03;5087496;28;20460;-81
2022/02/03 17:29:14;;;;;;;5.03;4.53;;;;;;;7.81;100.00;153365.50;5090013;28;20445;-80
2022/02/03 17:31:58;;;;;;;4.93;4.03;;;;;;;7.78;100.00;153357.72;5104304;28;20938;-80
2022/02/03 18:10:00;;;;;;;6.90;6.20;;;;;;;7.67;100.00;153330.59;5091138;28;20848;-80
2022/02/03 18:33:18;;;;;;;8.03;6.53;;;;;;;7.46;100.00;153275.06;5085799;28;20484;-80
2022/02/03 18:36:05;;;;;;;30.33;20.13;;;;;;;7.46;100.00;153275.06;5080307;28;20438;-80
2022/02/03 18:50:29;;;;;;;7.90;6.90;;;;;;;7.40;100.00;153259.53;5085907;28;20441;-80
2022/02/03 18:53:13;;;;;;;6.50;5.90;;;;;;;7.36;100.00;153251.78;5086165;28;20961;-81
2022/02/03 18:56:00;;;;;;;7.10;6.17;;;;;;;7.33;100.00;153244.03;5094198;28;20442;-80
2022/02/03 18:58:43;;;;;;;6.83;6.17;;;;;;;7.29;100.00;153233.72;5070164;28;20469;-80
2022/02/03 19:10:32;;;;;;;6.97;6.30;;;;;;;7.24;100.00;153219.53;5080051;28;20437;-81
2022/02/03 19:25:08;;;;;;;7.70;6.23;;;;;;;7.02;100.00;153164.00;5064320;28;20527;-80
2022/02/03 19:28:00;;;;;;;9.50;7.23;;;;;;;7.01;100.00;153160.13;5065626;28;20461;-80
2022/02/03 19:57:25;;;;;;;11.10;9.57;;;;;;;6.77;100.00;153099.47;5061408;28;20446;-80
2022/02/03 20:05:50;;;;;;;12.40;10.60;;;;;;;6.75;100.00;153095.56;5083166;28;20449;-80
2022/02/03 20:08:31;;;;;;;10.13;9.03;;;;;;;6.65;100.00;153069.78;5064713;28;20801;-80
2022/02/03 20:11:11;;;;;;;10.63;9.53;;;;;;;6.64;100.00;153065.91;5091531;28;20996;-80
2022/02/03 20:13:47;;;;;;;10.73;8.70;;;;;;;6.59;100.00;153054.28;5083296;28;20480;-81
2022/02/03 20:16:23;;;;;;;11.83;9.90;;;;;;;6.59;100.00;153054.28;5083644;28;21029;-80
2022/02/03 20:18:58;;;;;;;11.83;9.87;;;;;;;6.56;100.00;153045.25;5084476;28;20498;-80
2022/02/03 20:21:35;;;;;;;12.43;9.57;;;;;;;6.58;100.00;153050.41;5071780;28;20492;-81
2022/02/03 20:24:11;;;;;;;14.53;12.67;;;;;;;6.56;100.00;153046.56;5066823;28;20535;-80
2022/02/03 20:26:48;;;;;;;14.63;12.13;;;;;;;6.55;100.00;153042.66;5083690;28;20843;-81
2022/02/03 20:29:24;;;;;;;12.73;11.43;;;;;;;6.50;100.00;153029.75;5087733;28;21071;-81
2022/02/03 20:31:59;;;;;;;13.93;11.83;;;;;;;6.47;100.00;153022.00;5076095;28;20497;-80